sensor_id;sensor_type;location;lat;lon;timestamp;P1;durP1;ratioP1;P2;durP2;ratioP2
15645;SDS011;7922;43.622;1.476;2023-01-20T00:00:20;4.00;;;2.73;;
15645;SDS011;7922;43.622;1.476;2023-01-20T00:02:45;2.67;;;2.47;;
15645;SDS011;7922;43.622;1.476;2023-01-20T00:05:11;2.73;;;2.53;;
15645;SDS011;7922;43.622;1.476;2023-01-20T00:07:36;2.80;;;2.43;;
15645;SDS011;7922;43.622;1.476;2023-01-20T00:10:01;2.57;;;2.27;;
15645;SDS011;7922;43.622;1.476;2023-01-20T00:12:28;2.80;;;2.60;;
15645;SDS011;7922;43.622;1.476;2023-01-20T00:14:54;3.53;;;2.40;;
15645;SDS011;7922;43.622;1.476;2023-01-20T00:17:19;3.27;;;2.97;;
15645;SDS011;7922;43.622;1.476;2023-01-20T00:19:45;3.10;;;2.70;;
15645;SDS011;7922;43.622;1.476;2023-01-20T00:22:25;3.00;;;2.80;;
15645;SDS011;7922;43.622;1.476;2023-01-20T00:24:50;3.30;;;2.73;;
15645;SDS011;7922;43.622;1.476;2023-01-20T00:27:16;6.43;;;3.30;;
15645;SDS011;7922;43.622;1.476;2023-01-20T00:29:41;4.60;;;3.13;;
15645;SDS011;7922;43.622;1.476;2023-01-20T00:32:06;3.73;;;3.07;;
15645;SDS011;7922;43.622;1.476;2023-01-20T00:34:31;3.23;;;2.93;;
15645;SDS011;7922;43.622;1.476;2023-01-20T00:36:57;3.27;;;2.97;;
15645;SDS011;7922;43.622;1.476;2023-01-20T00:39:22;3.17;;;2.83;;
15645;SDS011;7922;43.622;1.476;2023-01-20T00:41:47;3.60;;;3.30;;
15645;SDS011;7922;43.622;1.476;2023-01-20T00:44:12;3.27;;;2.97;;
15645;SDS011;7922;43.622;1.476;2023-01-20T00:46:38;3.73;;;3.20;;
15645;SDS011;7922;43.622;1.476;2023-01-20T00:49:03;4.07;;;3.10;;
15645;SDS011;7922;43.622;1.476;2023-01-20T00:51:28;3.93;;;3.00;;
15645;SDS011;7922;43.622;1.476;2023-01-20T00:53:53;3.27;;;2.77;;
15645;SDS011;7922;43.622;1.476;2023-01-20T00:56:19;2.77;;;2.57;;
15645;SDS011;7922;43.622;1.476;2023-01-20T00:58:44;2.77;;;2.47;;
15645;SDS011;7922;43.622;1.476;2023-01-20T01:01:10;3.20;;;2.90;;
15645;SDS011;7922;43.622;1.476;2023-01-20T01:03:36;2.97;;;2.37;;
15645;SDS011;7922;43.622;1.476;2023-01-20T01:06:08;3.57;;;2.70;;
15645;SDS011;7922;43.622;1.476;2023-01-20T01:08:35;2.70;;;2.50;;
15645;SDS011;7922;43.622;1.476;2023-01-20T01:11:00;3.20;;;2.80;;
15645;SDS011;7922;43.622;1.476;2023-01-20T01:13:26;3.07;;;2.40;;
15645;SDS011;7922;43.622;1.476;2023-01-20T01:15:51;2.93;;;2.63;;
15645;SDS011;7922;43.622;1.476;2023-01-20T01:18:17;2.60;;;2.40;;
15645;SDS011;7922;43.622;1.476;2023-01-20T01:20:42;2.70;;;2.50;;
15645;SDS011;7922;43.622;1.476;2023-01-20T01:23:07;3.43;;;2.27;;
15645;SDS011;7922;43.622;1.476;2023-01-20T01:25:33;2.53;;;2.33;;
15645;SDS011;7922;43.622;1.476;2023-01-20T01:27:58;3.13;;;2.50;;
15645;SDS011;7922;43.622;1.476;2023-01-20T01:30:23;3.07;;;2.30;;
15645;SDS011;7922;43.622;1.476;2023-01-20T01:32:48;2.80;;;2.30;;
15645;SDS011;7922;43.622;1.476;2023-01-20T01:35:14;2.60;;;2.20;;
15645;SDS011;7922;43.622;1.476;2023-01-20T01:37:39;5.07;;;2.70;;
15645;SDS011;7922;43.622;1.476;2023-01-20T01:40:04;2.37;;;2.17;;
15645;SDS011;7922;43.622;1.476;2023-01-20T01:42:30;2.60;;;2.30;;
15645;SDS011;7922;43.622;1.476;2023-01-20T01:50:14;2.43;;;2.20;;
15645;SDS011;7922;43.622;1.476;2023-01-20T01:52:47;3.30;;;2.50;;
15645;SDS011;7922;43.622;1.476;2023-01-20T01:55:16;2.53;;;2.20;;
15645;SDS011;7922;43.622;1.476;2023-01-20T01:57:43;3.97;;;2.20;;
15645;SDS011;7922;43.622;1.476;2023-01-20T02:00:09;2.87;;;2.10;;
15645;SDS011;7922;43.622;1.476;2023-01-20T02:02:35;4.53;;;2.60;;
15645;SDS011;7922;43.622;1.476;2023-01-20T02:05:01;3.17;;;2.17;;
15645;SDS011;7922;43.622;1.476;2023-01-20T02:07:27;2.83;;;2.20;;
15645;SDS011;7922;43.622;1.476;2023-01-20T02:09:53;2.20;;;2.00;;
15645;SDS011;7922;43.622;1.476;2023-01-20T02:12:19;2.83;;;2.20;;
15645;SDS011;7922;43.622;1.476;2023-01-20T02:14:47;4.43;;;2.57;;
15645;SDS011;7922;43.622;1.476;2023-01-20T02:17:26;2.40;;;2.20;;
15645;SDS011;7922;43.622;1.476;2023-01-20T02:33:38;2.47;;;2.00;;
15645;SDS011;7922;43.622;1.476;2023-01-20T02:38:44;2.27;;;2.13;;
15645;SDS011;7922;43.622;1.476;2023-01-20T02:41:19;2.73;;;1.90;;
15645;SDS011;7922;43.622;1.476;2023-01-20T02:43:46;2.60;;;2.10;;
15645;SDS011;7922;43.622;1.476;2023-01-20T02:46:14;2.67;;;2.20;;
15645;SDS011;7922;43.622;1.476;2023-01-20T02:48:54;2.27;;;2.03;;
15645;SDS011;7922;43.622;1.476;2023-01-20T02:54:17;2.63;;;2.00;;
15645;SDS011;7922;43.622;1.476;2023-01-20T02:56:46;2.10;;;1.90;;
15645;SDS011;7922;43.622;1.476;2023-01-20T02:59:14;1.93;;;1.80;;
15645;SDS011;7922;43.622;1.476;2023-01-20T03:01:53;2.97;;;1.90;;
15645;SDS011;7922;43.622;1.476;2023-01-20T03:04:26;2.10;;;1.90;;
15645;SDS011;7922;43.622;1.476;2023-01-20T03:06:55;2.10;;;1.90;;
15645;SDS011;7922;43.622;1.476;2023-01-20T03:09:30;3.43;;;2.23;;
15645;SDS011;7922;43.622;1.476;2023-01-20T03:12:03;2.20;;;1.93;;
15645;SDS011;7922;43.622;1.476;2023-01-20T03:14:35;2.50;;;2.00;;
15645;SDS011;7922;43.622;1.476;2023-01-20T03:17:01;2.10;;;1.93;;
15645;SDS011;7922;43.622;1.476;2023-01-20T03:19:26;2.53;;;2.00;;
15645;SDS011;7922;43.622;1.476;2023-01-20T03:21:52;2.10;;;1.90;;
15645;SDS011;7922;43.622;1.476;2023-01-20T03:24:17;2.70;;;2.50;;
15645;SDS011;7922;43.622;1.476;2023-01-20T03:26:43;2.97;;;2.10;;
15645;SDS011;7922;43.622;1.476;2023-01-20T03:29:09;2.60;;;2.17;;
15645;SDS011;7922;43.622;1.476;2023-01-20T03:31:35;2.93;;;2.13;;
15645;SDS011;7922;43.622;1.476;2023-01-20T03:34:07;2.50;;;2.30;;
15645;SDS011;7922;43.622;1.476;2023-01-20T03:36:35;3.47;;;2.10;;
15645;SDS011;7922;43.622;1.476;2023-01-20T03:39:01;2.43;;;2.17;;
15645;SDS011;7922;43.622;1.476;2023-01-20T03:44:04;5.33;;;2.50;;
15645;SDS011;7922;43.622;1.476;2023-01-20T03:46:45;2.63;;;2.20;;
15645;SDS011;7922;43.622;1.476;2023-01-20T03:49:24;3.03;;;2.40;;
15645;SDS011;7922;43.622;1.476;2023-01-20T03:52:02;3.13;;;2.47;;
15645;SDS011;7922;43.622;1.476;2023-01-20T03:54:34;3.47;;;2.50;;
15645;SDS011;7922;43.622;1.476;2023-01-20T03:57:12;3.17;;;2.50;;
15645;SDS011;7922;43.622;1.476;2023-01-20T03:59:46;3.77;;;2.60;;
15645;SDS011;7922;43.622;1.476;2023-01-20T04:02:14;3.37;;;2.27;;
15645;SDS011;7922;43.622;1.476;2023-01-20T04:04:39;4.60;;;2.47;;
15645;SDS011;7922;43.622;1.476;2023-01-20T04:07:08;3.33;;;2.17;;
15645;SDS011;7922;43.622;1.476;2023-01-20T04:09:38;2.97;;;2.30;;
15645;SDS011;7922;43.622;1.476;2023-01-20T04:12:08;4.77;;;2.43;;
15645;SDS011;7922;43.622;1.476;2023-01-20T04:14:34;3.17;;;2.20;;
15645;SDS011;7922;43.622;1.476;2023-01-20T04:17:00;3.17;;;2.10;;
15645;SDS011;7922;43.622;1.476;2023-01-20T04:19:27;3.40;;;2.53;;
15645;SDS011;7922;43.622;1.476;2023-01-20T04:22:11;2.60;;;2.40;;
15645;SDS011;7922;43.622;1.476;2023-01-20T04:27:32;2.77;;;2.30;;
15645;SDS011;7922;43.622;1.476;2023-01-20T04:29:57;5.27;;;2.37;;
15645;SDS011;7922;43.622;1.476;2023-01-20T04:32:23;4.13;;;2.47;;
15645;SDS011;7922;43.622;1.476;2023-01-20T04:34:51;3.50;;;2.50;;
15645;SDS011;7922;43.622;1.476;2023-01-20T04:37:16;3.20;;;2.30;;
15645;SDS011;7922;43.622;1.476;2023-01-20T04:39:42;2.43;;;2.23;;
15645;SDS011;7922;43.622;1.476;2023-01-20T04:42:08;2.63;;;2.20;;
15645;SDS011;7922;43.622;1.476;2023-01-20T04:44:34;4.47;;;2.60;;
15645;SDS011;7922;43.622;1.476;2023-01-20T04:46:59;2.83;;;2.43;;
15645;SDS011;7922;43.622;1.476;2023-01-20T04:49:25;3.30;;;2.37;;
15645;SDS011;7922;43.622;1.476;2023-01-20T04:51:50;3.33;;;2.80;;
15645;SDS011;7922;43.622;1.476;2023-01-20T04:54:15;2.53;;;2.30;;
15645;SDS011;7922;43.622;1.476;2023-01-20T04:56:40;3.37;;;2.17;;
15645;SDS011;7922;43.622;1.476;2023-01-20T04:59:06;2.60;;;2.30;;
15645;SDS011;7922;43.622;1.476;2023-01-20T05:01:31;4.37;;;2.10;;
15645;SDS011;7922;43.622;1.476;2023-01-20T05:03:56;2.37;;;2.17;;
15645;SDS011;7922;43.622;1.476;2023-01-20T05:06:21;2.43;;;2.20;;
15645;SDS011;7922;43.622;1.476;2023-01-20T05:08:47;2.20;;;2.00;;
15645;SDS011;7922;43.622;1.476;2023-01-20T05:11:12;2.40;;;2.20;;
15645;SDS011;7922;43.622;1.476;2023-01-20T05:13:37;3.50;;;2.57;;
15645;SDS011;7922;43.622;1.476;2023-01-20T05:16:03;3.00;;;2.70;;
15645;SDS011;7922;43.622;1.476;2023-01-20T05:18:32;3.20;;;2.37;;
15645;SDS011;7922;43.622;1.476;2023-01-20T05:20:58;2.73;;;2.13;;
15645;SDS011;7922;43.622;1.476;2023-01-20T05:23:23;3.80;;;2.40;;
15645;SDS011;7922;43.622;1.476;2023-01-20T05:25:49;3.83;;;2.10;;
15645;SDS011;7922;43.622;1.476;2023-01-20T05:28:15;3.73;;;2.40;;
15645;SDS011;7922;43.622;1.476;2023-01-20T05:30:41;3.40;;;2.30;;
15645;SDS011;7922;43.622;1.476;2023-01-20T05:33:06;3.87;;;2.60;;
15645;SDS011;7922;43.622;1.476;2023-01-20T05:35:31;3.93;;;2.43;;
15645;SDS011;7922;43.622;1.476;2023-01-20T05:37:56;3.70;;;2.20;;
15645;SDS011;7922;43.622;1.476;2023-01-20T05:40:22;3.30;;;2.37;;
15645;SDS011;7922;43.622;1.476;2023-01-20T05:42:47;2.10;;;1.87;;
15645;SDS011;7922;43.622;1.476;2023-01-20T05:45:12;3.47;;;2.27;;
15645;SDS011;7922;43.622;1.476;2023-01-20T05:47:38;3.63;;;1.97;;
15645;SDS011;7922;43.622;1.476;2023-01-20T05:50:03;3.77;;;2.53;;
15645;SDS011;7922;43.622;1.476;2023-01-20T05:52:29;4.50;;;2.30;;
15645;SDS011;7922;43.622;1.476;2023-01-20T05:54:55;4.50;;;2.20;;
15645;SDS011;7922;43.622;1.476;2023-01-20T05:57:22;4.30;;;2.63;;
15645;SDS011;7922;43.622;1.476;2023-01-20T05:59:48;2.73;;;2.17;;
15645;SDS011;7922;43.622;1.476;2023-01-20T06:02:13;4.97;;;2.17;;
15645;SDS011;7922;43.622;1.476;2023-01-20T06:04:39;2.20;;;2.00;;
15645;SDS011;7922;43.622;1.476;2023-01-20T06:07:05;3.40;;;2.27;;
15645;SDS011;7922;43.622;1.476;2023-01-20T06:09:30;3.60;;;2.43;;
15645;SDS011;7922;43.622;1.476;2023-01-20T06:11:55;3.50;;;2.90;;
15645;SDS011;7922;43.622;1.476;2023-01-20T06:14:21;3.53;;;2.20;;
15645;SDS011;7922;43.622;1.476;2023-01-20T06:16:46;4.07;;;2.70;;
15645;SDS011;7922;43.622;1.476;2023-01-20T06:19:11;3.67;;;2.47;;
15645;SDS011;7922;43.622;1.476;2023-01-20T06:21:36;5.57;;;2.63;;
15645;SDS011;7922;43.622;1.476;2023-01-20T06:24:02;5.60;;;2.67;;
15645;SDS011;7922;43.622;1.476;2023-01-20T06:26:27;3.97;;;2.80;;
15645;SDS011;7922;43.622;1.476;2023-01-20T06:28:56;4.03;;;2.57;;
15645;SDS011;7922;43.622;1.476;2023-01-20T06:31:22;5.83;;;3.10;;
15645;SDS011;7922;43.622;1.476;2023-01-20T06:33:48;5.10;;;2.97;;
15645;SDS011;7922;43.622;1.476;2023-01-20T06:36:13;4.07;;;2.73;;
15645;SDS011;7922;43.622;1.476;2023-01-20T06:38:38;6.07;;;2.80;;
15645;SDS011;7922;43.622;1.476;2023-01-20T06:41:05;5.43;;;2.90;;
15645;SDS011;7922;43.622;1.476;2023-01-20T06:43:32;6.00;;;3.00;;
15645;SDS011;7922;43.622;1.476;2023-01-20T06:45:59;5.60;;;3.17;;
15645;SDS011;7922;43.622;1.476;2023-01-20T06:48:24;4.27;;;2.93;;
15645;SDS011;7922;43.622;1.476;2023-01-20T06:50:50;4.67;;;3.10;;
15645;SDS011;7922;43.622;1.476;2023-01-20T06:53:15;4.60;;;3.13;;
15645;SDS011;7922;43.622;1.476;2023-01-20T06:55:41;3.30;;;2.83;;
15645;SDS011;7922;43.622;1.476;2023-01-20T06:58:06;4.03;;;3.07;;
15645;SDS011;7922;43.622;1.476;2023-01-20T07:00:31;4.13;;;2.80;;
15645;SDS011;7922;43.622;1.476;2023-01-20T07:02:57;7.17;;;3.83;;
15645;SDS011;7922;43.622;1.476;2023-01-20T07:05:22;4.83;;;3.00;;
15645;SDS011;7922;43.622;1.476;2023-01-20T07:07:47;6.30;;;3.10;;
15645;SDS011;7922;43.622;1.476;2023-01-20T07:10:13;5.30;;;3.20;;
15645;SDS011;7922;43.622;1.476;2023-01-20T07:12:38;3.87;;;3.40;;
15645;SDS011;7922;43.622;1.476;2023-01-20T07:15:03;5.37;;;3.40;;
15645;SDS011;7922;43.622;1.476;2023-01-20T07:17:29;5.33;;;2.93;;
15645;SDS011;7922;43.622;1.476;2023-01-20T07:19:54;6.27;;;3.20;;
15645;SDS011;7922;43.622;1.476;2023-01-20T07:22:19;5.43;;;3.27;;
15645;SDS011;7922;43.622;1.476;2023-01-20T07:24:45;8.10;;;3.37;;
15645;SDS011;7922;43.622;1.476;2023-01-20T07:27:10;4.13;;;2.70;;
15645;SDS011;7922;43.622;1.476;2023-01-20T07:29:35;4.80;;;2.90;;
15645;SDS011;7922;43.622;1.476;2023-01-20T07:32:01;4.47;;;2.87;;
15645;SDS011;7922;43.622;1.476;2023-01-20T07:34:26;4.03;;;2.97;;
15645;SDS011;7922;43.622;1.476;2023-01-20T07:36:51;8.43;;;3.33;;
15645;SDS011;7922;43.622;1.476;2023-01-20T07:39:16;8.70;;;3.40;;
15645;SDS011;7922;43.622;1.476;2023-01-20T07:41:42;6.13;;;3.40;;
15645;SDS011;7922;43.622;1.476;2023-01-20T07:44:07;3.80;;;3.33;;
15645;SDS011;7922;43.622;1.476;2023-01-20T07:46:32;7.93;;;4.27;;
15645;SDS011;7922;43.622;1.476;2023-01-20T07:48:57;5.23;;;3.43;;
15645;SDS011;7922;43.622;1.476;2023-01-20T07:51:23;6.47;;;3.60;;
15645;SDS011;7922;43.622;1.476;2023-01-20T07:53:48;5.27;;;3.10;;
15645;SDS011;7922;43.622;1.476;2023-01-20T07:56:21;13.93;;;4.40;;
15645;SDS011;7922;43.622;1.476;2023-01-20T07:58:48;6.70;;;3.60;;
15645;SDS011;7922;43.622;1.476;2023-01-20T08:01:14;6.20;;;3.37;;
15645;SDS011;7922;43.622;1.476;2023-01-20T08:03:42;6.47;;;3.90;;
15645;SDS011;7922;43.622;1.476;2023-01-20T08:06:09;8.97;;;3.90;;
15645;SDS011;7922;43.622;1.476;2023-01-20T08:08:35;7.37;;;4.13;;
15645;SDS011;7922;43.622;1.476;2023-01-20T08:11:01;7.37;;;3.70;;
15645;SDS011;7922;43.622;1.476;2023-01-20T08:13:27;7.40;;;3.23;;
15645;SDS011;7922;43.622;1.476;2023-01-20T08:15:53;6.37;;;3.77;;
15645;SDS011;7922;43.622;1.476;2023-01-20T08:18:18;5.10;;;3.63;;
15645;SDS011;7922;43.622;1.476;2023-01-20T08:20:44;9.00;;;4.13;;
15645;SDS011;7922;43.622;1.476;2023-01-20T08:23:09;6.87;;;4.20;;
15645;SDS011;7922;43.622;1.476;2023-01-20T08:25:34;8.37;;;3.90;;
15645;SDS011;7922;43.622;1.476;2023-01-20T08:28:00;6.53;;;3.77;;
15645;SDS011;7922;43.622;1.476;2023-01-20T08:30:25;5.83;;;3.93;;
15645;SDS011;7922;43.622;1.476;2023-01-20T08:32:50;6.10;;;4.10;;
15645;SDS011;7922;43.622;1.476;2023-01-20T08:35:16;4.80;;;3.67;;
15645;SDS011;7922;43.622;1.476;2023-01-20T08:37:41;5.30;;;3.40;;
15645;SDS011;7922;43.622;1.476;2023-01-20T08:40:06;5.27;;;3.43;;
15645;SDS011;7922;43.622;1.476;2023-01-20T08:42:34;5.70;;;3.30;;
15645;SDS011;7922;43.622;1.476;2023-01-20T08:45:01;4.70;;;3.97;;
15645;SDS011;7922;43.622;1.476;2023-01-20T08:47:26;5.97;;;3.70;;
15645;SDS011;7922;43.622;1.476;2023-01-20T08:49:52;5.33;;;3.40;;
15645;SDS011;7922;43.622;1.476;2023-01-20T08:52:18;5.77;;;3.50;;
15645;SDS011;7922;43.622;1.476;2023-01-20T08:54:43;7.70;;;3.53;;
15645;SDS011;7922;43.622;1.476;2023-01-20T08:57:09;4.20;;;3.30;;
15645;SDS011;7922;43.622;1.476;2023-01-20T08:59:34;5.20;;;3.03;;
15645;SDS011;7922;43.622;1.476;2023-01-20T09:01:59;4.60;;;3.40;;
15645;SDS011;7922;43.622;1.476;2023-01-20T09:04:24;5.13;;;3.63;;
15645;SDS011;7922;43.622;1.476;2023-01-20T09:06:50;6.73;;;3.93;;
15645;SDS011;7922;43.622;1.476;2023-01-20T09:09:16;5.93;;;3.47;;
15645;SDS011;7922;43.622;1.476;2023-01-20T09:11:42;6.30;;;3.70;;
15645;SDS011;7922;43.622;1.476;2023-01-20T09:14:08;5.17;;;3.37;;
15645;SDS011;7922;43.622;1.476;2023-01-20T09:16:33;6.17;;;3.43;;
15645;SDS011;7922;43.622;1.476;2023-01-20T09:18:58;6.40;;;3.60;;
15645;SDS011;7922;43.622;1.476;2023-01-20T09:21:24;5.33;;;3.33;;
15645;SDS011;7922;43.622;1.476;2023-01-20T09:23:49;6.93;;;3.40;;
15645;SDS011;7922;43.622;1.476;2023-01-20T09:26:14;7.10;;;3.00;;
15645;SDS011;7922;43.622;1.476;2023-01-20T09:28:40;6.27;;;3.10;;
15645;SDS011;7922;43.622;1.476;2023-01-20T09:31:06;5.43;;;3.30;;
15645;SDS011;7922;43.622;1.476;2023-01-20T09:33:33;4.83;;;3.47;;
15645;SDS011;7922;43.622;1.476;2023-01-20T09:36:00;4.67;;;3.90;;
15645;SDS011;7922;43.622;1.476;2023-01-20T09:38:27;5.40;;;3.17;;
15645;SDS011;7922;43.622;1.476;2023-01-20T09:40:59;10.43;;;3.43;;
15645;SDS011;7922;43.622;1.476;2023-01-20T09:43:52;4.23;;;3.47;;
15645;SDS011;7922;43.622;1.476;2023-01-20T09:46:23;8.90;;;3.77;;
15645;SDS011;7922;43.622;1.476;2023-01-20T09:51:47;5.50;;;3.77;;
15645;SDS011;7922;43.622;1.476;2023-01-20T09:54:24;4.90;;;3.20;;
15645;SDS011;7922;43.622;1.476;2023-01-20T09:56:54;6.77;;;3.60;;
15645;SDS011;7922;43.622;1.476;2023-01-20T09:59:30;4.97;;;2.77;;
15645;SDS011;7922;43.622;1.476;2023-01-20T10:02:05;6.13;;;3.47;;
15645;SDS011;7922;43.622;1.476;2023-01-20T10:04:45;3.97;;;2.73;;
15645;SDS011;7922;43.622;1.476;2023-01-20T10:10:22;5.10;;;3.10;;
15645;SDS011;7922;43.622;1.476;2023-01-20T10:13:00;4.80;;;2.87;;
15645;SDS011;7922;43.622;1.476;2023-01-20T10:15:42;5.63;;;3.10;;
15645;SDS011;7922;43.622;1.476;2023-01-20T10:18:29;3.90;;;3.00;;
15645;SDS011;7922;43.622;1.476;2023-01-20T10:21:06;6.97;;;3.17;;
15645;SDS011;7922;43.622;1.476;2023-01-20T10:23:36;4.47;;;3.27;;
15645;SDS011;7922;43.622;1.476;2023-01-20T10:26:17;3.73;;;3.30;;
15645;SDS011;7922;43.622;1.476;2023-01-20T10:28:59;6.07;;;3.43;;
15645;SDS011;7922;43.622;1.476;2023-01-20T10:31:27;6.60;;;3.23;;
15645;SDS011;7922;43.622;1.476;2023-01-20T10:33:58;4.93;;;3.33;;
15645;SDS011;7922;43.622;1.476;2023-01-20T10:36:37;5.47;;;2.93;;
15645;SDS011;7922;43.622;1.476;2023-01-20T10:42:03;4.40;;;2.80;;
15645;SDS011;7922;43.622;1.476;2023-01-20T10:44:33;4.60;;;2.80;;
15645;SDS011;7922;43.622;1.476;2023-01-20T10:58:36;5.57;;;3.40;;
15645;SDS011;7922;43.622;1.476;2023-01-20T11:01:06;4.27;;;2.80;;
15645;SDS011;7922;43.622;1.476;2023-01-20T11:03:34;4.23;;;2.57;;
15645;SDS011;7922;43.622;1.476;2023-01-20T11:06:01;4.27;;;3.07;;
15645;SDS011;7922;43.622;1.476;2023-01-20T11:08:28;4.07;;;2.97;;
15645;SDS011;7922;43.622;1.476;2023-01-20T11:10:55;5.30;;;2.90;;
15645;SDS011;7922;43.622;1.476;2023-01-20T11:13:22;5.53;;;3.07;;
15645;SDS011;7922;43.622;1.476;2023-01-20T11:15:49;3.07;;;2.70;;
15645;SDS011;7922;43.622;1.476;2023-01-20T11:18:19;4.27;;;2.77;;
15645;SDS011;7922;43.622;1.476;2023-01-20T11:20:51;4.57;;;3.10;;
15645;SDS011;7922;43.622;1.476;2023-01-20T11:26:02;5.03;;;2.83;;
15645;SDS011;7922;43.622;1.476;2023-01-20T11:28:36;5.87;;;3.13;;
15645;SDS011;7922;43.622;1.476;2023-01-20T11:31:12;3.73;;;2.77;;
15645;SDS011;7922;43.622;1.476;2023-01-20T11:33:38;3.20;;;2.70;;
15645;SDS011;7922;43.622;1.476;2023-01-20T11:36:04;3.33;;;2.70;;
15645;SDS011;7922;43.622;1.476;2023-01-20T11:38:39;6.13;;;3.37;;
15645;SDS011;7922;43.622;1.476;2023-01-20T11:44:02;4.37;;;2.83;;
15645;SDS011;7922;43.622;1.476;2023-01-20T11:46:33;6.83;;;3.50;;
15645;SDS011;7922;43.622;1.476;2023-01-20T11:49:12;4.07;;;3.40;;
15645;SDS011;7922;43.622;1.476;2023-01-20T11:51:54;6.67;;;2.97;;
15645;SDS011;7922;43.622;1.476;2023-01-20T11:54:25;3.73;;;3.13;;
15645;SDS011;7922;43.622;1.476;2023-01-20T11:56:54;5.47;;;3.17;;
15645;SDS011;7922;43.622;1.476;2023-01-20T11:59:26;4.43;;;2.70;;
15645;SDS011;7922;43.622;1.476;2023-01-20T12:01:54;5.80;;;2.90;;
15645;SDS011;7922;43.622;1.476;2023-01-20T12:07:36;3.03;;;2.77;;
15645;SDS011;7922;43.622;1.476;2023-01-20T12:10:16;5.10;;;3.40;;
15645;SDS011;7922;43.622;1.476;2023-01-20T12:15:39;6.63;;;3.50;;
15645;SDS011;7922;43.622;1.476;2023-01-20T12:20:56;4.43;;;2.93;;
15645;SDS011;7922;43.622;1.476;2023-01-20T12:23:31;5.33;;;3.47;;
15645;SDS011;7922;43.622;1.476;2023-01-20T12:26:13;4.87;;;3.10;;
15645;SDS011;7922;43.622;1.476;2023-01-20T12:31:18;3.53;;;2.80;;
15645;SDS011;7922;43.622;1.476;2023-01-20T12:34:04;5.00;;;3.13;;
15645;SDS011;7922;43.622;1.476;2023-01-20T12:41:47;5.30;;;2.90;;
15645;SDS011;7922;43.622;1.476;2023-01-20T12:52:40;4.17;;;3.07;;
15645;SDS011;7922;43.622;1.476;2023-01-20T12:55:21;3.47;;;2.93;;
15645;SDS011;7922;43.622;1.476;2023-01-20T12:58:10;6.43;;;3.30;;
15645;SDS011;7922;43.622;1.476;2023-01-20T13:00:42;3.73;;;3.33;;
15645;SDS011;7922;43.622;1.476;2023-01-20T13:11:15;4.93;;;3.30;;
15645;SDS011;7922;43.622;1.476;2023-01-20T13:19:33;6.70;;;3.30;;
15645;SDS011;7922;43.622;1.476;2023-01-20T13:22:18;4.20;;;2.93;;
15645;SDS011;7922;43.622;1.476;2023-01-20T13:24:52;4.17;;;3.27;;
15645;SDS011;7922;43.622;1.476;2023-01-20T13:27:39;4.93;;;3.00;;
15645;SDS011;7922;43.622;1.476;2023-01-20T13:30:05;5.57;;;3.07;;
15645;SDS011;7922;43.622;1.476;2023-01-20T13:37:47;4.23;;;2.87;;
15645;SDS011;7922;43.622;1.476;2023-01-20T13:43:02;5.70;;;3.00;;
15645;SDS011;7922;43.622;1.476;2023-01-20T13:45:29;4.83;;;2.70;;
15645;SDS011;7922;43.622;1.476;2023-01-20T13:47:58;3.43;;;2.50;;
15645;SDS011;7922;43.622;1.476;2023-01-20T13:50:33;4.83;;;2.87;;
15645;SDS011;7922;43.622;1.476;2023-01-20T13:53:10;4.00;;;2.80;;
15645;SDS011;7922;43.622;1.476;2023-01-20T13:58:13;4.47;;;2.70;;
15645;SDS011;7922;43.622;1.476;2023-01-20T14:00:40;5.63;;;2.70;;
15645;SDS011;7922;43.622;1.476;2023-01-20T14:06:04;4.63;;;2.47;;
15645;SDS011;7922;43.622;1.476;2023-01-20T14:08:30;4.07;;;2.60;;
15645;SDS011;7922;43.622;1.476;2023-01-20T14:11:10;5.13;;;2.53;;
15645;SDS011;7922;43.622;1.476;2023-01-20T14:13:38;4.03;;;2.20;;
15645;SDS011;7922;43.622;1.476;2023-01-20T14:16:05;4.87;;;2.93;;
15645;SDS011;7922;43.622;1.476;2023-01-20T14:18:41;5.30;;;2.67;;
15645;SDS011;7922;43.622;1.476;2023-01-20T14:21:22;3.77;;;2.50;;
15645;SDS011;7922;43.622;1.476;2023-01-20T14:23:49;3.83;;;2.63;;
15645;SDS011;7922;43.622;1.476;2023-01-20T14:26:26;5.40;;;2.77;;
15645;SDS011;7922;43.622;1.476;2023-01-20T14:28:54;3.70;;;2.63;;
15645;SDS011;7922;43.622;1.476;2023-01-20T14:31:38;3.37;;;2.57;;
15645;SDS011;7922;43.622;1.476;2023-01-20T14:36:48;4.87;;;2.17;;
15645;SDS011;7922;43.622;1.476;2023-01-20T14:39:19;4.93;;;2.20;;
15645;SDS011;7922;43.622;1.476;2023-01-20T14:41:47;3.60;;;2.40;;
15645;SDS011;7922;43.622;1.476;2023-01-20T14:44:19;4.33;;;2.50;;
15645;SDS011;7922;43.622;1.476;2023-01-20T14:46:45;4.17;;;2.40;;
15645;SDS011;7922;43.622;1.476;2023-01-20T14:49:13;3.60;;;2.70;;
15645;SDS011;7922;43.622;1.476;2023-01-20T14:51:40;4.03;;;2.30;;
15645;SDS011;7922;43.622;1.476;2023-01-20T14:59:47;4.40;;;3.00;;
15645;SDS011;7922;43.622;1.476;2023-01-20T15:02:45;5.07;;;2.20;;
15645;SDS011;7922;43.622;1.476;2023-01-20T15:05:32;3.97;;;2.50;;
15645;SDS011;7922;43.622;1.476;2023-01-20T15:08:14;2.27;;;1.90;;
15645;SDS011;7922;43.622;1.476;2023-01-20T15:10:40;4.87;;;1.90;;
15645;SDS011;7922;43.622;1.476;2023-01-20T15:21:49;4.53;;;2.50;;
15645;SDS011;7922;43.622;1.476;2023-01-20T15:24:19;5.10;;;2.30;;
15645;SDS011;7922;43.622;1.476;2023-01-20T15:26:47;4.20;;;2.00;;
15645;SDS011;7922;43.622;1.476;2023-01-20T15:29:20;2.83;;;2.10;;
15645;SDS011;7922;43.622;1.476;2023-01-20T15:31:51;2.80;;;2.10;;
15645;SDS011;7922;43.622;1.476;2023-01-20T15:34:17;3.93;;;2.37;;
15645;SDS011;7922;43.622;1.476;2023-01-20T15:36:44;3.77;;;2.30;;
15645;SDS011;7922;43.622;1.476;2023-01-20T15:39:12;4.63;;;2.53;;
15645;SDS011;7922;43.622;1.476;2023-01-20T15:41:38;4.87;;;2.87;;
15645;SDS011;7922;43.622;1.476;2023-01-20T15:44:04;5.23;;;2.90;;
15645;SDS011;7922;43.622;1.476;2023-01-20T15:46:29;5.77;;;3.63;;
15645;SDS011;7922;43.622;1.476;2023-01-20T15:48:54;4.37;;;3.00;;
15645;SDS011;7922;43.622;1.476;2023-01-20T15:51:20;5.37;;;3.03;;
15645;SDS011;7922;43.622;1.476;2023-01-20T15:53:45;5.80;;;3.10;;
15645;SDS011;7922;43.622;1.476;2023-01-20T15:58:47;7.97;;;3.10;;
15645;SDS011;7922;43.622;1.476;2023-01-20T16:01:15;7.57;;;3.33;;
15645;SDS011;7922;43.622;1.476;2023-01-20T16:03:45;4.20;;;2.70;;
15645;SDS011;7922;43.622;1.476;2023-01-20T16:06:11;5.97;;;3.80;;
15645;SDS011;7922;43.622;1.476;2023-01-20T16:08:40;5.83;;;3.23;;
15645;SDS011;7922;43.622;1.476;2023-01-20T16:11:06;6.73;;;3.10;;
15645;SDS011;7922;43.622;1.476;2023-01-20T16:13:32;5.30;;;2.90;;
15645;SDS011;7922;43.622;1.476;2023-01-20T16:15:57;7.77;;;3.03;;
15645;SDS011;7922;43.622;1.476;2023-01-20T16:18:23;4.53;;;2.77;;
15645;SDS011;7922;43.622;1.476;2023-01-20T16:20:50;4.30;;;3.17;;
15645;SDS011;7922;43.622;1.476;2023-01-20T16:23:15;5.77;;;2.83;;
15645;SDS011;7922;43.622;1.476;2023-01-20T16:25:41;3.80;;;2.90;;
15645;SDS011;7922;43.622;1.476;2023-01-20T16:28:18;4.73;;;4.20;;
15645;SDS011;7922;43.622;1.476;2023-01-20T16:30:45;4.83;;;3.40;;
15645;SDS011;7922;43.622;1.476;2023-01-20T16:33:15;3.47;;;3.03;;
15645;SDS011;7922;43.622;1.476;2023-01-20T16:35:40;5.43;;;3.80;;
15645;SDS011;7922;43.622;1.476;2023-01-20T16:38:06;4.00;;;3.60;;
15645;SDS011;7922;43.622;1.476;2023-01-20T16:40:31;4.83;;;3.73;;
15645;SDS011;7922;43.622;1.476;2023-01-20T16:42:56;5.80;;;3.77;;
15645;SDS011;7922;43.622;1.476;2023-01-20T16:45:23;4.83;;;3.67;;
15645;SDS011;7922;43.622;1.476;2023-01-20T16:47:50;5.80;;;3.77;;
15645;SDS011;7922;43.622;1.476;2023-01-20T16:50:16;4.73;;;3.70;;
15645;SDS011;7922;43.622;1.476;2023-01-20T16:52:41;6.20;;;4.60;;
15645;SDS011;7922;43.622;1.476;2023-01-20T16:55:07;6.70;;;4.43;;
15645;SDS011;7922;43.622;1.476;2023-01-20T16:57:32;7.60;;;4.57;;
15645;SDS011;7922;43.622;1.476;2023-01-20T16:59:58;7.10;;;5.57;;
15645;SDS011;7922;43.622;1.476;2023-01-20T17:02:23;7.43;;;4.57;;
15645;SDS011;7922;43.622;1.476;2023-01-20T17:04:49;7.50;;;5.43;;
15645;SDS011;7922;43.622;1.476;2023-01-20T17:07:14;10.23;;;6.50;;
15645;SDS011;7922;43.622;1.476;2023-01-20T17:09:41;8.40;;;5.63;;
15645;SDS011;7922;43.622;1.476;2023-01-20T17:12:06;6.57;;;5.43;;
15645;SDS011;7922;43.622;1.476;2023-01-20T17:14:32;8.37;;;5.00;;